RYR274F LEBL-GMFF
Flight info
| Callsign | RYR274F |
|---|---|
| Flight time | 1h 29m |
| Altitude | 35000 |
| Route | LOTOS M985 VLC N860 NARGO DCT RESTU N860 AMR DCT GONZA N860 BERUM UG850 FES |
| Aircraft | B738/M-SDE2E3FGHIRWXY/LB1 |
Departure
| Time | 2026-04-28 06:23 |
|---|---|
| Airport | Josep Tarradellas Barcelona-El Prat Airport (LEBL) |
Arrival
| Time | 2026-04-28 07:53 |
|---|---|
| Airport | Fes Saïss International Airport (GMFF) |
| Time | Latitude | Longitude | Altitude | Speed | Heading |
|---|---|---|---|---|---|
| 2026-04-28 05:45 | 41.30065 | 2.07112 | 20 ft | 0 kts | 68° |
| 2026-04-28 06:07 | 41.30060 | 2.07096 | 20 ft | 4 kts | 68° |
| 2026-04-28 06:08 | 41.30051 | 2.07068 | 22 ft | 4 kts | 63° |
| 2026-04-28 06:08 | 41.30036 | 2.07040 | 20 ft | 4 kts | 33° |
| 2026-04-28 06:08 | 41.30012 | 2.07029 | 20 ft | 4 kts | 355° |
| 2026-04-28 06:08 | 41.29987 | 2.07038 | 21 ft | 4 kts | 329° |
| 2026-04-28 06:09 | 41.29970 | 2.07054 | 24 ft | 3 kts | 317° |
| 2026-04-28 06:09 | 41.29950 | 2.07071 | 24 ft | 4 kts | 4° |
| 2026-04-28 06:09 | 41.29930 | 2.07057 | 20 ft | 4 kts | 60° |
| 2026-04-28 06:09 | 41.29919 | 2.07026 | 19 ft | 3 kts | 65° |
| 2026-04-28 06:10 | 41.29917 | 2.07022 | 19 ft | 1 kts | 65° |
| 2026-04-28 06:13 | 41.29924 | 2.07041 | 21 ft | 7 kts | 65° |
| 2026-04-28 06:13 | 41.29906 | 2.07127 | 18 ft | 16 kts | 152° |
| 2026-04-28 06:13 | 41.29794 | 2.07196 | 14 ft | 19 kts | 158° |
| 2026-04-28 06:14 | 41.29704 | 2.07118 | 15 ft | 18 kts | 244° |
| 2026-04-28 06:14 | 41.29652 | 2.06968 | 15 ft | 18 kts | 245° |
| 2026-04-28 06:14 | 41.29602 | 2.06818 | 16 ft | 18 kts | 245° |
| 2026-04-28 06:14 | 41.29551 | 2.06671 | 14 ft | 18 kts | 245° |
| 2026-04-28 06:15 | 41.29497 | 2.06511 | 15 ft | 20 kts | 246° |
| 2026-04-28 06:15 | 41.29437 | 2.06338 | 14 ft | 20 kts | 243° |
| 2026-04-28 06:15 | 41.29342 | 2.06229 | 15 ft | 20 kts | 165° |
| 2026-04-28 06:15 | 41.29218 | 2.06301 | 14 ft | 19 kts | 156° |
| 2026-04-28 06:16 | 41.29111 | 2.06398 | 13 ft | 19 kts | 116° |
| 2026-04-28 06:16 | 41.29063 | 2.06560 | 15 ft | 19 kts | 109° |
| 2026-04-28 06:16 | 41.29066 | 2.06727 | 17 ft | 19 kts | 67° |
| 2026-04-28 06:16 | 41.29117 | 2.06882 | 16 ft | 18 kts | 65° |
| 2026-04-28 06:17 | 41.29169 | 2.07030 | 16 ft | 17 kts | 66° |
| 2026-04-28 06:17 | 41.29222 | 2.07181 | 16 ft | 19 kts | 65° |
| 2026-04-28 06:17 | 41.29277 | 2.07347 | 16 ft | 20 kts | 65° |
| 2026-04-28 06:18 | 41.29387 | 2.07690 | 14 ft | 21 kts | 65° |
| 2026-04-28 06:18 | 41.29446 | 2.07861 | 14 ft | 20 kts | 64° |
| 2026-04-28 06:18 | 41.29507 | 2.08037 | 14 ft | 22 kts | 66° |
| 2026-04-28 06:18 | 41.29567 | 2.08228 | 17 ft | 22 kts | 82° |
| 2026-04-28 06:19 | 41.29609 | 2.08419 | 16 ft | 18 kts | 66° |
| 2026-04-28 06:19 | 41.29574 | 2.08546 | 16 ft | 17 kts | 153° |
| 2026-04-28 06:19 | 41.29462 | 2.08615 | 14 ft | 18 kts | 155° |
| 2026-04-28 06:19 | 41.29348 | 2.08684 | 18 ft | 18 kts | 155° |
| 2026-04-28 06:20 | 41.29233 | 2.08753 | 18 ft | 20 kts | 156° |
| 2026-04-28 06:20 | 41.29091 | 2.08837 | 15 ft | 24 kts | 156° |
| 2026-04-28 06:20 | 41.28947 | 2.08965 | 15 ft | 24 kts | 94° |
| 2026-04-28 06:20 | 41.29011 | 2.09161 | 16 ft | 23 kts | 65° |
| 2026-04-28 06:21 | 41.29077 | 2.09350 | 16 ft | 22 kts | 65° |
| 2026-04-28 06:21 | 41.29141 | 2.09533 | 16 ft | 22 kts | 66° |
| 2026-04-28 06:21 | 41.29201 | 2.09712 | 16 ft | 21 kts | 65° |
| 2026-04-28 06:21 | 41.29265 | 2.09901 | 18 ft | 24 kts | 67° |
| 2026-04-28 06:22 | 41.29249 | 2.10104 | 14 ft | 22 kts | 108° |
| 2026-04-28 06:22 | 41.29239 | 2.10290 | 14 ft | 17 kts | 140° |
| 2026-04-28 06:22 | 41.29189 | 2.10238 | 15 ft | 0 kts | 246° |
| 2026-04-28 06:23 | 41.29107 | 2.09996 | 17 ft | 63 kts | 245° |
| 2026-04-28 06:23 | 41.28836 | 2.09200 | 17 ft | 124 kts | 245° |
| 2026-04-28 06:23 | 41.28422 | 2.07973 | 169 ft | 158 kts | 247° |
| 2026-04-28 06:23 | 41.27924 | 2.06640 | 702 ft | 165 kts | 238° |
| 2026-04-28 06:24 | 41.27005 | 2.05677 | 1156 ft | 180 kts | 194° |
| 2026-04-28 06:24 | 41.25759 | 2.05648 | 1787 ft | 183 kts | 169° |
| 2026-04-28 06:24 | 41.24411 | 2.06098 | 1846 ft | 220 kts | 160° |
| 2026-04-28 06:24 | 41.22888 | 2.06951 | 1820 ft | 250 kts | 157° |
| 2026-04-28 06:25 | 41.21209 | 2.07181 | 2708 ft | 241 kts | 192° |
| 2026-04-28 06:25 | 41.19624 | 2.06665 | 3744 ft | 228 kts | 190° |
| 2026-04-28 06:25 | 41.18073 | 2.06379 | 4567 ft | 224 kts | 185° |
| 2026-04-28 06:25 | 41.16570 | 2.05798 | 5114 ft | 234 kts | 213° |
| 2026-04-28 06:26 | 41.15240 | 2.04464 | 5612 ft | 244 kts | 213° |
| 2026-04-28 06:26 | 41.13800 | 2.03250 | 6279 ft | 246 kts | 209° |
| 2026-04-28 06:26 | 41.12305 | 2.02133 | 6991 ft | 247 kts | 207° |
| 2026-04-28 06:26 | 41.10782 | 2.01058 | 7689 ft | 249 kts | 206° |
| 2026-04-28 06:27 | 41.09239 | 1.99993 | 8404 ft | 251 kts | 206° |
| 2026-04-28 06:27 | 41.07739 | 1.98800 | 9131 ft | 255 kts | 223° |
| 2026-04-28 06:27 | 41.06760 | 1.96807 | 9608 ft | 272 kts | 249° |
| 2026-04-28 06:27 | 41.06228 | 1.94312 | 10023 ft | 287 kts | 254° |
| 2026-04-28 06:28 | 41.05716 | 1.91685 | 10365 ft | 306 kts | 254° |
| 2026-04-28 06:28 | 41.05147 | 1.88857 | 10561 ft | 328 kts | 252° |
| 2026-04-28 06:28 | 41.04378 | 1.85953 | 11047 ft | 338 kts | 247° |
| 2026-04-28 06:28 | 41.03497 | 1.83045 | 11749 ft | 341 kts | 246° |
| 2026-04-28 06:29 | 41.02594 | 1.80127 | 12517 ft | 344 kts | 246° |
| 2026-04-28 06:29 | 41.01687 | 1.77178 | 13287 ft | 347 kts | 246° |
| 2026-04-28 06:29 | 41.00782 | 1.74198 | 14023 ft | 351 kts | 247° |
| 2026-04-28 06:29 | 40.99874 | 1.71181 | 14725 ft | 354 kts | 247° |
| 2026-04-28 06:30 | 40.98962 | 1.68133 | 15439 ft | 358 kts | 247° |
| 2026-04-28 06:30 | 40.98044 | 1.65060 | 16159 ft | 361 kts | 247° |
| 2026-04-28 06:30 | 40.97115 | 1.61950 | 16857 ft | 365 kts | 248° |
| 2026-04-28 06:30 | 40.96174 | 1.58808 | 17546 ft | 369 kts | 248° |
| 2026-04-28 06:31 | 40.95545 | 1.56711 | 18005 ft | 372 kts | 248° |
| 2026-04-28 06:31 | 40.94677 | 1.53471 | 18629 ft | 376 kts | 251° |
| 2026-04-28 06:31 | 40.93900 | 1.50157 | 19263 ft | 378 kts | 252° |
| 2026-04-28 06:31 | 40.93145 | 1.46815 | 19908 ft | 380 kts | 252° |
| 2026-04-28 06:32 | 40.92383 | 1.43455 | 20532 ft | 383 kts | 252° |
| 2026-04-28 06:32 | 40.91607 | 1.40076 | 21137 ft | 386 kts | 252° |
| 2026-04-28 06:32 | 40.90816 | 1.36678 | 21730 ft | 388 kts | 252° |
| 2026-04-28 06:32 | 40.90011 | 1.33254 | 22302 ft | 391 kts | 252° |
| 2026-04-28 06:33 | 40.89197 | 1.29805 | 22860 ft | 395 kts | 252° |
| 2026-04-28 06:33 | 40.88375 | 1.26333 | 23434 ft | 397 kts | 252° |
| 2026-04-28 06:33 | 40.87547 | 1.22839 | 23929 ft | 400 kts | 252° |
| 2026-04-28 06:33 | 40.86712 | 1.19324 | 24400 ft | 402 kts | 252° |
| 2026-04-28 06:34 | 40.85828 | 1.15805 | 24843 ft | 405 kts | 246° |
| 2026-04-28 06:34 | 40.84304 | 1.12692 | 25252 ft | 407 kts | 226° |
| 2026-04-28 06:34 | 40.82107 | 1.10328 | 25739 ft | 409 kts | 212° |
| 2026-04-28 06:34 | 40.79484 | 1.08844 | 26171 ft | 413 kts | 197° |
| 2026-04-28 06:35 | 40.76702 | 1.07847 | 26603 ft | 416 kts | 195° |
| 2026-04-28 06:35 | 40.73884 | 1.06906 | 26993 ft | 419 kts | 195° |
| 2026-04-28 06:35 | 40.71050 | 1.05957 | 27391 ft | 422 kts | 195° |
| 2026-04-28 06:35 | 40.68200 | 1.04980 | 27804 ft | 424 kts | 196° |
| 2026-04-28 06:36 | 40.65343 | 1.03977 | 28206 ft | 426 kts | 196° |
| 2026-04-28 06:36 | 40.62473 | 1.02957 | 28598 ft | 429 kts | 196° |
| 2026-04-28 06:36 | 40.59586 | 1.01929 | 28976 ft | 431 kts | 196° |
| 2026-04-28 06:36 | 40.56699 | 1.00837 | 29343 ft | 433 kts | 202° |
| 2026-04-28 06:37 | 40.54114 | 0.98957 | 29775 ft | 431 kts | 219° |
| 2026-04-28 06:37 | 40.51974 | 0.96235 | 30359 ft | 426 kts | 227° |
| 2026-04-28 06:37 | 40.49993 | 0.93367 | 30872 ft | 423 kts | 228° |
| 2026-04-28 06:37 | 40.48026 | 0.90496 | 31263 ft | 423 kts | 228° |
| 2026-04-28 06:38 | 40.46028 | 0.87587 | 31621 ft | 423 kts | 227° |
| 2026-04-28 06:38 | 40.44079 | 0.84767 | 32021 ft | 422 kts | 227° |
| 2026-04-28 06:38 | 40.42105 | 0.81933 | 32484 ft | 420 kts | 227° |
| 2026-04-28 06:38 | 40.40135 | 0.79122 | 32941 ft | 418 kts | 227° |
| 2026-04-28 06:39 | 40.38169 | 0.76327 | 33347 ft | 417 kts | 227° |
| 2026-04-28 06:39 | 40.36202 | 0.73536 | 33727 ft | 416 kts | 227° |
| 2026-04-28 06:39 | 40.34241 | 0.70755 | 34112 ft | 415 kts | 227° |
| 2026-04-28 06:39 | 40.32285 | 0.67982 | 34436 ft | 414 kts | 227° |
| 2026-04-28 06:40 | 40.30330 | 0.65212 | 34734 ft | 414 kts | 227° |
| 2026-04-28 06:40 | 40.28378 | 0.62449 | 35015 ft | 414 kts | 227° |
| 2026-04-28 06:40 | 40.26409 | 0.59669 | 35005 ft | 419 kts | 227° |
| 2026-04-28 06:41 | 40.22441 | 0.54077 | 35013 ft | 417 kts | 227° |
| 2026-04-28 06:41 | 40.18524 | 0.48575 | 35023 ft | 411 kts | 227° |
| 2026-04-28 06:42 | 40.14625 | 0.43099 | 35036 ft | 412 kts | 227° |
| 2026-04-28 06:42 | 40.10712 | 0.37614 | 35048 ft | 413 kts | 227° |
| 2026-04-28 06:43 | 40.06797 | 0.32126 | 35032 ft | 413 kts | 227° |
| 2026-04-28 06:43 | 40.02868 | 0.26632 | 35016 ft | 414 kts | 227° |
| 2026-04-28 06:44 | 39.98935 | 0.21147 | 35021 ft | 414 kts | 227° |
| 2026-04-28 06:44 | 39.94997 | 0.15651 | 35020 ft | 415 kts | 227° |
| 2026-04-28 06:45 | 39.91055 | 0.10157 | 35023 ft | 415 kts | 227° |
| 2026-04-28 06:45 | 39.87114 | 0.04671 | 35023 ft | 415 kts | 226° |
| 2026-04-28 06:46 | 39.83170 | -0.00806 | 35038 ft | 414 kts | 226° |
| 2026-04-28 06:46 | 39.79220 | -0.06267 | 35017 ft | 414 kts | 226° |
| 2026-04-28 06:47 | 39.75267 | -0.11717 | 35032 ft | 414 kts | 226° |
| 2026-04-28 06:47 | 39.71313 | -0.17157 | 35040 ft | 414 kts | 226° |
| 2026-04-28 06:48 | 39.67361 | -0.22591 | 35039 ft | 414 kts | 226° |
| 2026-04-28 06:48 | 39.63409 | -0.28019 | 35042 ft | 414 kts | 226° |
| 2026-04-28 06:49 | 39.59459 | -0.33439 | 35052 ft | 413 kts | 226° |
| 2026-04-28 06:49 | 39.55535 | -0.38816 | 35042 ft | 413 kts | 226° |
| 2026-04-28 06:50 | 39.51580 | -0.44224 | 35049 ft | 413 kts | 226° |
| 2026-04-28 06:50 | 39.47324 | -0.49212 | 35043 ft | 414 kts | 213° |
| 2026-04-28 06:51 | 39.42282 | -0.52801 | 35050 ft | 414 kts | 208° |
| 2026-04-28 06:51 | 39.37176 | -0.56266 | 35032 ft | 414 kts | 208° |
| 2026-04-28 06:52 | 39.32083 | -0.59769 | 35032 ft | 415 kts | 208° |
| 2026-04-28 06:52 | 39.26999 | -0.63291 | 35038 ft | 415 kts | 208° |
| 2026-04-28 06:53 | 39.21913 | -0.66818 | 35043 ft | 415 kts | 208° |
| 2026-04-28 06:53 | 39.16827 | -0.70340 | 35039 ft | 415 kts | 208° |
| 2026-04-28 06:54 | 39.11736 | -0.73858 | 35038 ft | 415 kts | 208° |
| 2026-04-28 06:54 | 39.06644 | -0.77365 | 35044 ft | 415 kts | 208° |
| 2026-04-28 06:55 | 39.01549 | -0.80867 | 35032 ft | 415 kts | 208° |
| 2026-04-28 06:55 | 38.96455 | -0.84366 | 35036 ft | 415 kts | 208° |
| 2026-04-28 06:56 | 38.91362 | -0.87863 | 35027 ft | 415 kts | 208° |
| 2026-04-28 06:56 | 38.86270 | -0.91357 | 35029 ft | 415 kts | 208° |
| 2026-04-28 06:57 | 38.81176 | -0.94849 | 35029 ft | 415 kts | 208° |
| 2026-04-28 06:57 | 38.76078 | -0.98335 | 35023 ft | 415 kts | 208° |
| 2026-04-28 06:58 | 38.70975 | -1.01813 | 35020 ft | 416 kts | 208° |
| 2026-04-28 06:58 | 38.65868 | -1.05281 | 35025 ft | 416 kts | 208° |
| 2026-04-28 06:59 | 38.60758 | -1.08750 | 35017 ft | 416 kts | 208° |
| 2026-04-28 06:59 | 38.55649 | -1.12218 | 35016 ft | 416 kts | 208° |
| 2026-04-28 07:00 | 38.50539 | -1.15684 | 35019 ft | 416 kts | 208° |
| 2026-04-28 07:00 | 38.45426 | -1.19144 | 35017 ft | 416 kts | 208° |
| 2026-04-28 07:01 | 38.40313 | -1.22600 | 35024 ft | 416 kts | 208° |
| 2026-04-28 07:01 | 38.35195 | -1.26053 | 35026 ft | 416 kts | 208° |
| 2026-04-28 07:02 | 38.30074 | -1.29503 | 35023 ft | 416 kts | 208° |
| 2026-04-28 07:02 | 38.24951 | -1.32948 | 35034 ft | 416 kts | 208° |
| 2026-04-28 07:03 | 38.19832 | -1.36386 | 35030 ft | 416 kts | 208° |
| 2026-04-28 07:03 | 38.14747 | -1.39796 | 35038 ft | 416 kts | 208° |
| 2026-04-28 07:04 | 38.09633 | -1.43220 | 35040 ft | 415 kts | 208° |
| 2026-04-28 07:04 | 38.04524 | -1.46636 | 35039 ft | 415 kts | 208° |
| 2026-04-28 07:05 | 37.99416 | -1.50049 | 35041 ft | 415 kts | 208° |
| 2026-04-28 07:05 | 37.94310 | -1.53456 | 35040 ft | 415 kts | 208° |
| 2026-04-28 07:06 | 37.89195 | -1.56850 | 35030 ft | 415 kts | 207° |
| 2026-04-28 07:06 | 37.84054 | -1.60183 | 35039 ft | 415 kts | 207° |
| 2026-04-28 07:07 | 37.78904 | -1.63507 | 35028 ft | 416 kts | 207° |
| 2026-04-28 07:07 | 37.73751 | -1.66837 | 35032 ft | 416 kts | 207° |
| 2026-04-28 07:08 | 37.68596 | -1.70169 | 35017 ft | 417 kts | 207° |
| 2026-04-28 07:08 | 37.63428 | -1.73506 | 35026 ft | 417 kts | 207° |
| 2026-04-28 07:09 | 37.58257 | -1.76841 | 35022 ft | 418 kts | 207° |
| 2026-04-28 07:09 | 37.53075 | -1.80177 | 35024 ft | 418 kts | 207° |
| 2026-04-28 07:10 | 37.47883 | -1.83514 | 35019 ft | 419 kts | 207° |
| 2026-04-28 07:10 | 37.42685 | -1.86852 | 35009 ft | 420 kts | 207° |
| 2026-04-28 07:11 | 37.37477 | -1.90191 | 35016 ft | 420 kts | 207° |
| 2026-04-28 07:11 | 37.32260 | -1.93533 | 35018 ft | 421 kts | 206° |
| 2026-04-28 07:12 | 37.27031 | -1.96876 | 35012 ft | 422 kts | 206° |
| 2026-04-28 07:12 | 37.21846 | -2.00221 | 35000 ft | 422 kts | 207° |
| 2026-04-28 07:13 | 37.16658 | -2.03691 | 35003 ft | 423 kts | 208° |
| 2026-04-28 07:13 | 37.11472 | -2.07171 | 34994 ft | 423 kts | 208° |
| 2026-04-28 07:14 | 37.06263 | -2.10648 | 34988 ft | 425 kts | 208° |
| 2026-04-28 07:14 | 37.01024 | -2.14134 | 34967 ft | 427 kts | 208° |
| 2026-04-28 07:15 | 36.95770 | -2.17624 | 34940 ft | 427 kts | 208° |
| 2026-04-28 07:15 | 36.90527 | -2.21106 | 34942 ft | 426 kts | 208° |
| 2026-04-28 07:16 | 36.85297 | -2.24570 | 34945 ft | 425 kts | 208° |
| 2026-04-28 07:16 | 36.80363 | -2.28602 | 34958 ft | 424 kts | 219° |
| 2026-04-28 07:17 | 36.75777 | -2.33228 | 34944 ft | 424 kts | 219° |
| 2026-04-28 07:17 | 36.71193 | -2.37854 | 34935 ft | 424 kts | 219° |
| 2026-04-28 07:18 | 36.66535 | -2.42495 | 34958 ft | 434 kts | 218° |
| 2026-04-28 07:18 | 36.61776 | -2.47202 | 34949 ft | 438 kts | 218° |
| 2026-04-28 07:19 | 36.57800 | -2.51121 | 34942 ft | 439 kts | 218° |
| 2026-04-28 07:19 | 36.52978 | -2.55873 | 34947 ft | 439 kts | 218° |
| 2026-04-28 07:20 | 36.48198 | -2.60575 | 34940 ft | 437 kts | 218° |
| 2026-04-28 07:20 | 36.43462 | -2.65227 | 34939 ft | 437 kts | 218° |
| 2026-04-28 07:21 | 36.38697 | -2.69901 | 34955 ft | 436 kts | 218° |
| 2026-04-28 07:21 | 36.33938 | -2.74563 | 34948 ft | 435 kts | 218° |
| 2026-04-28 07:22 | 36.26823 | -2.81522 | 34946 ft | 433 kts | 218° |
| 2026-04-28 07:22 | 36.22096 | -2.86136 | 34944 ft | 432 kts | 218° |
| 2026-04-28 07:23 | 36.17343 | -2.90754 | 34950 ft | 439 kts | 218° |
| 2026-04-28 07:23 | 36.12481 | -2.95455 | 34953 ft | 446 kts | 218° |
| 2026-04-28 07:24 | 36.07571 | -3.00203 | 34960 ft | 447 kts | 218° |
| 2026-04-28 07:24 | 36.02687 | -3.04923 | 34943 ft | 444 kts | 218° |
| 2026-04-28 07:25 | 35.97909 | -3.09534 | 34942 ft | 428 kts | 217° |
| 2026-04-28 07:25 | 35.93232 | -3.14041 | 34958 ft | 426 kts | 217° |
| 2026-04-28 07:26 | 35.88561 | -3.18538 | 34955 ft | 426 kts | 217° |
| 2026-04-28 07:26 | 35.83876 | -3.23038 | 34960 ft | 428 kts | 217° |
| 2026-04-28 07:27 | 35.79152 | -3.27517 | 34961 ft | 429 kts | 217° |
| 2026-04-28 07:27 | 35.74389 | -3.31979 | 34963 ft | 431 kts | 217° |
| 2026-04-28 07:28 | 35.69608 | -3.36458 | 34953 ft | 433 kts | 217° |
| 2026-04-28 07:28 | 35.64767 | -3.40996 | 34959 ft | 443 kts | 217° |
| 2026-04-28 07:29 | 35.59827 | -3.45625 | 34968 ft | 445 kts | 217° |
| 2026-04-28 07:29 | 35.54975 | -3.50164 | 34946 ft | 437 kts | 217° |
| 2026-04-28 07:30 | 35.50160 | -3.54662 | 34948 ft | 435 kts | 217° |
| 2026-04-28 07:30 | 35.45342 | -3.59154 | 34960 ft | 436 kts | 217° |
| 2026-04-28 07:31 | 35.40476 | -3.63685 | 34969 ft | 443 kts | 217° |
| 2026-04-28 07:31 | 35.35519 | -3.68294 | 34696 ft | 454 kts | 217° |
| 2026-04-28 07:32 | 35.32991 | -3.70642 | 34216 ft | 457 kts | 217° |
| 2026-04-28 07:32 | 35.30464 | -3.72988 | 33619 ft | 456 kts | 217° |
| 2026-04-28 07:32 | 35.27937 | -3.75332 | 33002 ft | 456 kts | 217° |
| 2026-04-28 07:32 | 35.25410 | -3.77674 | 32392 ft | 455 kts | 217° |
| 2026-04-28 07:33 | 35.22889 | -3.80010 | 31775 ft | 455 kts | 217° |
| 2026-04-28 07:33 | 35.20362 | -3.82348 | 31226 ft | 454 kts | 217° |
| 2026-04-28 07:33 | 35.17862 | -3.84664 | 30797 ft | 449 kts | 218° |
| 2026-04-28 07:33 | 35.15398 | -3.86985 | 30327 ft | 446 kts | 218° |
| 2026-04-28 07:34 | 35.12961 | -3.89305 | 29870 ft | 442 kts | 218° |
| 2026-04-28 07:34 | 35.10547 | -3.91610 | 29357 ft | 439 kts | 218° |
| 2026-04-28 07:34 | 35.08156 | -3.93894 | 28891 ft | 434 kts | 218° |
| 2026-04-28 07:34 | 35.05788 | -3.96151 | 28421 ft | 430 kts | 218° |
| 2026-04-28 07:35 | 35.03441 | -3.98385 | 27974 ft | 425 kts | 218° |
| 2026-04-28 07:35 | 35.01116 | -4.00594 | 27521 ft | 422 kts | 218° |
| 2026-04-28 07:35 | 34.98810 | -4.02783 | 27078 ft | 418 kts | 218° |
| 2026-04-28 07:35 | 34.96523 | -4.04951 | 26632 ft | 415 kts | 217° |
| 2026-04-28 07:36 | 34.94257 | -4.07098 | 26198 ft | 411 kts | 217° |
| 2026-04-28 07:36 | 34.92005 | -4.09229 | 25764 ft | 408 kts | 217° |
| 2026-04-28 07:36 | 34.89769 | -4.11343 | 25328 ft | 405 kts | 217° |
| 2026-04-28 07:36 | 34.87547 | -4.13443 | 24900 ft | 403 kts | 217° |
| 2026-04-28 07:37 | 34.85341 | -4.15528 | 24464 ft | 401 kts | 217° |
| 2026-04-28 07:37 | 34.83145 | -4.17602 | 24028 ft | 399 kts | 217° |
| 2026-04-28 07:37 | 34.80959 | -4.19665 | 23597 ft | 397 kts | 217° |
| 2026-04-28 07:37 | 34.78783 | -4.21716 | 23098 ft | 394 kts | 217° |
| 2026-04-28 07:38 | 34.76624 | -4.23749 | 22643 ft | 391 kts | 217° |
| 2026-04-28 07:38 | 34.74482 | -4.25766 | 22195 ft | 388 kts | 216° |
| 2026-04-28 07:38 | 34.72359 | -4.27762 | 21751 ft | 384 kts | 216° |
| 2026-04-28 07:38 | 34.70259 | -4.29737 | 21355 ft | 380 kts | 216° |
| 2026-04-28 07:39 | 34.68178 | -4.31691 | 20934 ft | 377 kts | 216° |
| 2026-04-28 07:39 | 34.66116 | -4.33625 | 20525 ft | 373 kts | 217° |
| 2026-04-28 07:39 | 34.64068 | -4.35546 | 20124 ft | 370 kts | 217° |
| 2026-04-28 07:39 | 34.62038 | -4.37450 | 19715 ft | 367 kts | 217° |
| 2026-04-28 07:40 | 34.60023 | -4.39339 | 19300 ft | 364 kts | 217° |
| 2026-04-28 07:40 | 34.58025 | -4.41209 | 18895 ft | 361 kts | 217° |
| 2026-04-28 07:40 | 34.56043 | -4.43064 | 18498 ft | 359 kts | 217° |
| 2026-04-28 07:40 | 34.54075 | -4.44905 | 18086 ft | 356 kts | 217° |
| 2026-04-28 07:41 | 34.52118 | -4.46735 | 17638 ft | 354 kts | 217° |
| 2026-04-28 07:41 | 34.50178 | -4.48548 | 17211 ft | 351 kts | 217° |
| 2026-04-28 07:41 | 34.48254 | -4.50346 | 16784 ft | 348 kts | 217° |
| 2026-04-28 07:41 | 34.46346 | -4.52130 | 16399 ft | 345 kts | 217° |
| 2026-04-28 07:42 | 34.44453 | -4.53897 | 16007 ft | 342 kts | 217° |
| 2026-04-28 07:42 | 34.42577 | -4.55646 | 15616 ft | 339 kts | 217° |
| 2026-04-28 07:42 | 34.40716 | -4.57379 | 15233 ft | 336 kts | 217° |
| 2026-04-28 07:42 | 34.38867 | -4.59099 | 14858 ft | 334 kts | 217° |
| 2026-04-28 07:43 | 34.37027 | -4.60798 | 14481 ft | 332 kts | 216° |
| 2026-04-28 07:43 | 34.35194 | -4.62484 | 14086 ft | 330 kts | 216° |
| 2026-04-28 07:43 | 34.33370 | -4.64159 | 13709 ft | 328 kts | 216° |
| 2026-04-28 07:43 | 34.31555 | -4.65828 | 13293 ft | 327 kts | 216° |
| 2026-04-28 07:44 | 34.29710 | -4.67410 | 12862 ft | 323 kts | 207° |
| 2026-04-28 07:44 | 34.27602 | -4.68227 | 12268 ft | 318 kts | 189° |
| 2026-04-28 07:44 | 34.25417 | -4.68561 | 11651 ft | 315 kts | 186° |
| 2026-04-28 07:44 | 34.23271 | -4.68815 | 11047 ft | 313 kts | 185° |
| 2026-04-28 07:45 | 34.21110 | -4.69056 | 10443 ft | 311 kts | 185° |
| 2026-04-28 07:45 | 34.18972 | -4.69288 | 9973 ft | 306 kts | 185° |
| 2026-04-28 07:45 | 34.16872 | -4.69511 | 9469 ft | 301 kts | 185° |
| 2026-04-28 07:45 | 34.14777 | -4.69732 | 9003 ft | 295 kts | 185° |
| 2026-04-28 07:46 | 34.12788 | -4.69939 | 8626 ft | 287 kts | 185° |
| 2026-04-28 07:46 | 34.10794 | -4.70144 | 8258 ft | 281 kts | 185° |
| 2026-04-28 07:46 | 34.08868 | -4.70339 | 7887 ft | 275 kts | 185° |
| 2026-04-28 07:46 | 34.06996 | -4.70530 | 7487 ft | 272 kts | 185° |
| 2026-04-28 07:47 | 34.05114 | -4.70724 | 7105 ft | 271 kts | 185° |
| 2026-04-28 07:47 | 34.03237 | -4.70920 | 6726 ft | 270 kts | 185° |
| 2026-04-28 07:47 | 34.01367 | -4.71118 | 6349 ft | 270 kts | 185° |
| 2026-04-28 07:47 | 33.99498 | -4.71318 | 5954 ft | 269 kts | 185° |
| 2026-04-28 07:48 | 33.97636 | -4.71520 | 5561 ft | 269 kts | 185° |
| 2026-04-28 07:48 | 33.95778 | -4.71723 | 5173 ft | 267 kts | 185° |
| 2026-04-28 07:48 | 33.93951 | -4.71946 | 4865 ft | 260 kts | 190° |
| 2026-04-28 07:48 | 33.92346 | -4.72813 | 4571 ft | 252 kts | 224° |
| 2026-04-28 07:49 | 33.91500 | -4.74591 | 4358 ft | 245 kts | 261° |
| 2026-04-28 07:49 | 33.91686 | -4.76557 | 4133 ft | 234 kts | 292° |
| 2026-04-28 07:49 | 33.92244 | -4.78337 | 4013 ft | 221 kts | 286° |
| 2026-04-28 07:49 | 33.92520 | -4.80125 | 3998 ft | 215 kts | 278° |
| 2026-04-28 07:50 | 33.92656 | -4.81871 | 3985 ft | 203 kts | 273° |
| 2026-04-28 07:50 | 33.92687 | -4.83507 | 3946 ft | 190 kts | 271° |
| 2026-04-28 07:50 | 33.92690 | -4.85079 | 3742 ft | 185 kts | 270° |
| 2026-04-28 07:50 | 33.92692 | -4.86591 | 3508 ft | 175 kts | 270° |
| 2026-04-28 07:51 | 33.92696 | -4.88000 | 3296 ft | 165 kts | 270° |
| 2026-04-28 07:51 | 33.92700 | -4.89365 | 3071 ft | 162 kts | 270° |
| 2026-04-28 07:51 | 33.92705 | -4.90700 | 2863 ft | 157 kts | 269° |
| 2026-04-28 07:51 | 33.92708 | -4.91985 | 2651 ft | 150 kts | 269° |
| 2026-04-28 07:52 | 33.92712 | -4.93234 | 2442 ft | 149 kts | 268° |
| 2026-04-28 07:52 | 33.92716 | -4.94456 | 2247 ft | 144 kts | 269° |
| 2026-04-28 07:52 | 33.92718 | -4.95650 | 2029 ft | 143 kts | 268° |
| 2026-04-28 07:52 | 33.92723 | -4.96831 | 1858 ft | 135 kts | 269° |
| 2026-04-28 07:53 | 33.92730 | -4.97787 | 1854 ft | 67 kts | 271° |
| 2026-04-28 07:53 | 33.92732 | -4.98174 | 1853 ft | 41 kts | 269° |
| 2026-04-28 07:53 | 33.92834 | -4.98271 | 1854 ft | 14 kts | 359° |
| 2026-04-28 07:53 | 33.92910 | -4.98309 | 1854 ft | 13 kts | 282° |
| 2026-04-28 07:54 | 33.92941 | -4.98343 | 1854 ft | 6 kts | 4° |
| 2026-04-28 07:54 | 33.92975 | -4.98343 | 1855 ft | 1 kts | 1° |
| 2026-04-28 07:54 | 33.92979 | -4.98343 | 1855 ft | 0 kts | 1° |